createdAt,value
2018-07-13T00:03:01.646Z,0
2018-07-13T00:13:15.880Z,0
2018-07-13T00:23:14.915Z,0
2018-07-13T00:33:12.435Z,0
2018-07-13T00:43:01.708Z,0
2018-07-13T00:53:01.641Z,0
2018-07-13T01:03:01.820Z,0
2018-07-13T01:13:01.696Z,0
2018-07-13T01:23:01.795Z,0
2018-07-13T01:33:01.818Z,0
2018-07-13T01:43:01.736Z,0
2018-07-13T01:53:01.809Z,0
2018-07-13T02:03:01.771Z,0
2018-07-13T02:13:01.862Z,0
2018-07-13T02:29:28.930Z,0
2018-07-13T02:33:01.738Z,0
2018-07-13T02:43:01.857Z,0
2018-07-13T02:53:01.776Z,0
2018-07-13T03:03:01.862Z,0
2018-07-13T03:13:01.811Z,0
2018-07-13T03:23:01.918Z,5
2018-07-13T03:33:01.851Z,10
2018-07-13T03:43:01.901Z,15
2018-07-13T03:53:01.962Z,25
2018-07-13T04:03:01.793Z,35
2018-07-13T04:13:01.902Z,45
2018-07-13T04:23:01.952Z,55
2018-07-13T04:33:01.940Z,60
2018-07-13T04:43:01.948Z,70
2018-07-13T04:53:01.984Z,55
2018-07-13T05:03:02.029Z,75
2018-07-13T05:13:01.978Z,75
2018-07-13T05:23:01.996Z,55
2018-07-13T05:33:02.015Z,65
2018-07-13T05:43:02.018Z,110
2018-07-13T05:53:02.061Z,85
2018-07-13T06:03:01.938Z,95
2018-07-13T06:13:02.038Z,135
2018-07-13T06:23:02.009Z,115
2018-07-13T06:33:02.066Z,140
2018-07-13T06:43:02.149Z,155
2018-07-13T06:53:02.070Z,180
2018-07-13T07:03:02.097Z,125
2018-07-13T07:13:02.097Z,170
2018-07-13T07:23:02.183Z,265
2018-07-13T07:33:02.089Z,315
2018-07-13T07:43:02.157Z,300
2018-07-13T07:53:02.178Z,415
2018-07-13T08:03:02.254Z,420
2018-07-13T08:13:02.334Z,420
2018-07-13T08:23:02.149Z,380
2018-07-13T08:33:02.225Z,355
2018-07-13T08:43:02.189Z,355
2018-07-13T08:53:02.338Z,330
2018-07-13T09:03:02.158Z,300
2018-07-13T09:13:02.768Z,160
2018-07-13T09:23:02.255Z,140
2018-07-13T09:33:04.706Z,130
2018-07-13T09:43:02.374Z,130
2018-07-13T09:53:02.305Z,130
2018-07-13T10:03:02.259Z,125
2018-07-13T10:13:02.111Z,125
2018-07-13T10:23:02.195Z,125
2018-07-13T10:33:02.120Z,125
2018-07-13T10:43:02.141Z,125
2018-07-13T10:53:02.109Z,125
2018-07-13T11:03:02.149Z,125
2018-07-13T11:13:02.202Z,125
2018-07-13T11:23:02.326Z,125
2018-07-13T11:33:02.229Z,120
2018-07-13T11:43:02.103Z,120
2018-07-13T11:53:02.166Z,120
2018-07-13T12:03:02.119Z,125
2018-07-13T12:13:02.148Z,125
2018-07-13T12:23:02.151Z,130
2018-07-13T12:33:02.232Z,125
2018-07-13T12:43:02.166Z,130
2018-07-13T12:53:02.191Z,135
2018-07-13T13:03:02.116Z,140
2018-07-13T13:13:02.256Z,145
2018-07-13T13:23:02.263Z,150
2018-07-13T13:33:02.297Z,165
2018-07-13T13:43:02.182Z,185
2018-07-13T13:53:03.151Z,160
2018-07-13T14:03:02.220Z,210
2018-07-13T14:13:02.220Z,205
2018-07-13T14:23:02.153Z,200
2018-07-13T14:33:02.216Z,195
2018-07-13T14:43:02.201Z,195
2018-07-13T14:53:02.272Z,150
2018-07-13T15:03:02.183Z,150
2018-07-13T15:13:02.248Z,165
2018-07-13T15:23:02.272Z,140
2018-07-13T15:33:02.204Z,155
2018-07-13T15:43:02.220Z,145
2018-07-13T15:53:02.181Z,155
2018-07-13T16:03:02.277Z,115
2018-07-13T16:13:02.812Z,110
2018-07-13T16:23:02.283Z,105
2018-07-13T16:33:02.272Z,85
2018-07-13T16:43:02.223Z,100
2018-07-13T16:53:02.274Z,95
2018-07-13T17:03:02.343Z,95
2018-07-13T17:13:02.261Z,90
2018-07-13T17:23:02.242Z,85
2018-07-13T17:33:02.204Z,80
2018-07-13T17:43:02.391Z,80
2018-07-13T17:53:02.220Z,80
2018-07-13T18:03:02.451Z,75
2018-07-13T18:13:03.350Z,60
2018-07-13T18:23:02.634Z,60
2018-07-13T18:33:02.255Z,50
2018-07-13T18:43:02.340Z,45
2018-07-13T18:53:02.251Z,35
2018-07-13T19:03:02.345Z,30
2018-07-13T19:13:02.346Z,20
2018-07-13T19:23:02.472Z,10
2018-07-13T19:33:02.323Z,5
2018-07-13T19:43:02.487Z,5
2018-07-13T19:53:02.330Z,0
2018-07-13T20:03:02.429Z,0
2018-07-13T20:13:02.293Z,0
2018-07-13T20:23:02.440Z,0
2018-07-13T20:33:02.498Z,0
2018-07-13T20:43:02.391Z,0
2018-07-13T20:53:02.671Z,0
2018-07-13T21:03:03.101Z,0
2018-07-13T21:13:03.442Z,0
2018-07-13T21:23:02.888Z,0
2018-07-13T21:33:02.618Z,0
2018-07-13T21:43:02.984Z,0
2018-07-13T21:53:03.023Z,0
2018-07-13T22:03:02.662Z,0
2018-07-13T22:13:04.015Z,0
2018-07-13T22:23:02.956Z,0
2018-07-13T22:33:02.483Z,0
2018-07-13T22:43:02.274Z,0
2018-07-13T22:53:02.373Z,0
2018-07-13T23:03:02.300Z,0
2018-07-13T23:13:02.321Z,0
2018-07-13T23:23:02.338Z,0
2018-07-13T23:33:02.336Z,0
2018-07-13T23:43:02.337Z,0
2018-07-13T23:53:02.328Z,0
